Yutan, NE

1:13 PM CDT on August 28, 2015 (GMT -0500)
APRSWXNET | | Change Station
CLOSE
Current Station
Personal Weather Station
Location: Yutan, NE
Elevation: 1194 ft
Nearby Weather Stations

Elev 1194 ft 41.23 °N, 96.46 °W | Updated 15 minutes ago

Overcast
Overcast
81 °F
Feels Like 87 °F
N
0
Wind Variable Wind from West
Gusts 0.0 mph

Today
High -- | Low -- °F
--% Chance of Precip.
Yesterday
High -- | Low -- °F
Precip. -- in
6:47 AM 8:05 PM
Waxing Gibbous, 98% visible
Pressure 29.85 in
Visibility 10.0 miles
Clouds Mostly Cloudy 1800 ft
Mostly Cloudy 2300 ft
Overcast 3300 ft
Heat Index 87 °F
Dew Point 76 °F
Humidity 84%
Rainfall in
Snow Depth Not available.
UV 3 out of 12
Pollen 4.40 out of 12
Air Quality Not available.
Flu Activity Not available.
METAR KAHQ 281755Z AUTO 28009KT 10SM BKN018 BKN023 OVC033 24/21 A2985 RMK AO2 T02410207 10250 20205
Pressure 29.85 in
Visibility 10.0 miles
Clouds Mostly Cloudy 1800 ft
Mostly Cloudy 2300 ft
Overcast 3300 ft
Heat Index 87 °F
Dew Point 76 °F
Humidity 84%
Rainfall in
Snow Depth Not available.
UV 3 out of 12
Pollen 4.40 out of 12
Air Quality Not available.
Flu Activity Not available.
METAR KAHQ 281755Z AUTO 28009KT 10SM BKN018 BKN023 OVC033 24/21 A2985 RMK AO2 T02410207 10250 20205

10-Day Weather Forecast

×

Almanac

Astronomy

Aug. 28, 2015 Rise Set
Actual Time
Civil Twilight
Nautical Twilight
Astronomical Twilight
Moon
Length of Visible Light
Length of Day
Tomorrow will be .
, % of the Moon is Illuminated

Today's Extremes

State Highs State Lows

Community

WunderPhotos

Upload Photos

1,850,447 photos uploaded!

WunderBlogs® & News

Nearby

Air Quality

  Air Quality AQ Index Pollutant
Not available.

Snow Depth

Station Depth Elevation

Earthquake Activity

City Distance Mag. Time & Date
Minimum magnitude displayed is 2.5.

Coastal Water Temperatures

Place Temperature

Stations

Nearby Weather Stations

Station Location Temp. Windchill Dew Point Humidity Wind Precip. Elev Updated Type